createdAt,value
2023-05-08T00:01:52.461Z,99902.13
2023-05-08T00:04:18.805Z,99884.19
2023-05-08T00:06:45.300Z,99881.94
2023-05-08T00:09:11.981Z,99899.69
2023-05-08T00:11:38.767Z,99883.19
2023-05-08T00:14:05.258Z,99887.97
2023-05-08T00:16:32.122Z,99892.44
2023-05-08T00:18:58.576Z,99894.88
2023-05-08T00:21:25.203Z,99885.91
2023-05-08T00:23:51.573Z,99901.03
2023-05-08T00:26:17.993Z,99878.22
2023-05-08T00:28:44.419Z,99888.63
2023-05-08T00:31:10.804Z,99886.13
2023-05-08T00:33:37.440Z,99890.31
2023-05-08T00:36:05.192Z,99886.75
2023-05-08T00:38:35.980Z,99905.91
2023-05-08T00:41:03.353Z,99896.25
2023-05-08T00:43:29.780Z,99900.34
2023-05-08T00:45:58.038Z,99905.31
2023-05-08T00:48:27.490Z,99896.09
2023-05-08T00:50:55.395Z,99895.13
2023-05-08T00:53:23.203Z,99899.69
2023-05-08T00:55:51.074Z,99910.19
2023-05-08T00:58:18.552Z,99905.00
2023-05-08T01:00:46.555Z,99906.31
2023-05-08T01:03:14.279Z,99907.31
2023-05-08T01:05:40.907Z,99900.47
2023-05-08T01:08:07.426Z,99893.91
2023-05-08T01:11:20.107Z,99897.44
2023-05-08T01:13:51.908Z,99908.34
2023-05-08T01:16:46.414Z,99914.03
2023-05-08T01:19:22.000Z,99916.31
2023-05-08T01:22:00.310Z,99918.94
2023-05-08T01:24:57.552Z,99917.28
2023-05-08T01:27:50.107Z,99892.78
2023-05-08T01:30:48.885Z,99904.63
2023-05-08T01:33:30.216Z,99916.06
2023-05-08T01:36:04.658Z,99913.69
2023-05-08T01:38:40.129Z,99901.84
2023-05-08T01:41:09.405Z,99916.75
2023-05-08T01:43:48.996Z,99914.91
2023-05-08T01:46:20.786Z,99905.56
2023-05-08T01:48:51.467Z,99894.84
2023-05-08T01:51:21.639Z,99915.47
2023-05-08T01:54:00.759Z,99912.28
2023-05-08T01:56:29.052Z,99922.78
2023-05-08T01:58:57.862Z,99918.25
2023-05-08T02:01:26.278Z,99912.59
2023-05-08T02:03:55.989Z,99916.53
2023-05-08T02:06:26.071Z,99903.56
2023-05-08T02:08:57.555Z,99908.66
2023-05-08T02:11:25.232Z,99917.69
2023-05-08T02:13:52.820Z,99909.72
2023-05-08T02:16:20.930Z,99908.34
2023-05-08T02:18:51.788Z,99904.88
2023-05-08T02:21:20.145Z,99913.59
2023-05-08T02:23:47.685Z,99912.22
2023-05-08T02:26:15.809Z,99911.34
2023-05-08T02:28:43.290Z,99901.75
2023-05-08T02:31:11.069Z,99917.38
2023-05-08T02:33:41.492Z,99899.22
2023-05-08T02:36:08.913Z,99909.25
2023-05-08T02:38:38.115Z,99913.06
2023-05-08T02:41:06.148Z,99910.41
2023-05-08T02:43:32.637Z,99894.69
2023-05-08T02:46:16.354Z,99920.41
2023-05-08T02:49:03.405Z,99924.41
2023-05-08T02:51:48.614Z,99922.03
2023-05-08T02:54:23.764Z,99920.09
2023-05-08T02:57:03.086Z,99910.13
2023-05-08T02:59:37.028Z,99918.63
2023-05-08T03:02:18.000Z,99917.84
2023-05-08T03:04:51.743Z,99912.97
2023-05-08T03:07:23.071Z,99910.13
2023-05-08T03:09:56.535Z,99911.06
2023-05-08T03:12:26.736Z,99914.22
2023-05-08T03:14:58.722Z,99914.16
2023-05-08T03:17:28.154Z,99894.13
2023-05-08T03:19:57.885Z,99904.25
2023-05-08T03:22:28.208Z,99901.69
2023-05-08T03:24:55.868Z,99891.72
2023-05-08T03:27:22.672Z,99913.47
2023-05-08T03:29:49.729Z,99913.13
2023-05-08T03:32:17.270Z,99909.19
2023-05-08T03:34:44.155Z,99898.06
2023-05-08T03:37:10.848Z,99912.66
2023-05-08T03:39:37.472Z,99899.47
2023-05-08T03:42:04.020Z,99897.22
2023-05-08T03:44:30.869Z,99911.59
2023-05-08T03:46:58.339Z,99898.91
2023-05-08T03:49:26.207Z,99885.47
2023-05-08T03:51:56.439Z,99885.56
2023-05-08T03:54:22.915Z,99895.59
2023-05-08T03:56:49.266Z,99895.00
2023-05-08T03:59:32.566Z,99900.94
2023-05-08T04:02:10.614Z,99922.78
2023-05-08T04:04:41.334Z,99913.47
2023-05-08T04:07:10.419Z,99906.94
2023-05-08T04:09:59.395Z,99913.75
2023-05-08T04:12:36.200Z,99918.78
2023-05-08T04:15:22.755Z,99910.13
2023-05-08T04:17:53.478Z,99912.69
2023-05-08T04:20:22.163Z,99922.03
2023-05-08T04:22:50.679Z,99920.22
2023-05-08T04:25:19.025Z,99925.41
2023-05-08T04:27:46.302Z,99900.84
2023-05-08T04:30:13.337Z,99929.84
2023-05-08T04:32:41.729Z,99919.41
2023-05-08T04:35:09.661Z,99912.34
2023-05-08T04:37:36.006Z,99921.19
2023-05-08T04:40:04.357Z,99923.03
2023-05-08T04:42:30.813Z,99919.06
2023-05-08T04:44:57.363Z,99907.94
2023-05-08T04:47:23.695Z,99902.47
2023-05-08T04:49:50.172Z,99913.22
2023-05-08T04:52:16.711Z,99928.59
2023-05-08T04:54:42.990Z,99915.06
2023-05-08T04:57:09.528Z,99922.25
2023-05-08T04:59:36.016Z,99924.56
2023-05-08T05:02:02.616Z,99911.81
2023-05-08T05:04:29.051Z,99920.69
2023-05-08T05:06:55.346Z,99920.53
2023-05-08T05:09:21.943Z,99929.66
2023-05-08T05:11:48.375Z,99926.34
2023-05-08T05:14:14.917Z,99926.81
2023-05-08T05:16:41.439Z,99922.09
2023-05-08T05:19:07.794Z,99911.06
2023-05-08T05:21:34.194Z,99918.31
2023-05-08T05:24:00.499Z,99919.38
2023-05-08T05:26:26.957Z,99918.72
2023-05-08T05:28:53.298Z,99910.59
2023-05-08T05:31:19.857Z,99918.06
2023-05-08T05:33:48.162Z,99928.75
2023-05-08T05:36:15.326Z,99921.28
2023-05-08T05:38:42.016Z,99918.53
2023-05-08T05:41:08.351Z,99936.38
2023-05-08T05:43:34.982Z,99931.03
2023-05-08T05:46:08.715Z,99947.97
2023-05-08T05:48:35.345Z,99937.47
2023-05-08T05:51:02.846Z,99939.00
2023-05-08T05:53:29.295Z,99942.16
2023-05-08T05:55:55.777Z,99948.22
2023-05-08T05:58:23.223Z,99936.53
2023-05-08T06:00:49.579Z,99941.25
2023-05-08T06:03:16.088Z,99938.34
2023-05-08T06:05:43.018Z,99948.88
2023-05-08T06:08:09.795Z,99952.31
2023-05-08T06:10:36.110Z,99953.22
2023-05-08T06:13:02.671Z,99964.84
2023-05-08T06:15:29.517Z,99945.25
2023-05-08T06:17:56.703Z,99962.59
2023-05-08T06:20:24.370Z,99954.31
2023-05-08T06:22:53.316Z,99943.44
2023-05-08T06:25:20.218Z,99945.09
2023-05-08T06:27:46.510Z,99949.13
2023-05-08T06:30:13.560Z,99946.91
2023-05-08T06:32:39.946Z,99952.66
2023-05-08T06:35:08.036Z,99961.03
2023-05-08T06:37:34.392Z,99936.97
2023-05-08T06:40:11.647Z,99946.16
2023-05-08T06:42:39.750Z,99940.41
2023-05-08T06:45:06.880Z,99954.38
2023-05-08T06:47:33.350Z,99955.38
2023-05-08T06:50:01.418Z,99949.63
2023-05-08T06:52:27.714Z,99958.66
2023-05-08T06:54:54.648Z,99954.47
2023-05-08T06:57:22.360Z,99960.72
2023-05-08T06:59:48.665Z,99961.94
2023-05-08T07:02:15.339Z,99962.03
2023-05-08T07:04:42.841Z,99965.69
2023-05-08T07:07:10.004Z,99960.44
2023-05-08T07:09:36.299Z,99960.34
2023-05-08T07:12:03.222Z,99964.28
2023-05-08T07:14:30.213Z,99945.75
2023-05-08T07:16:56.649Z,99960.00
2023-05-08T07:19:24.952Z,99943.47
2023-05-08T07:21:51.424Z,99952.28
2023-05-08T07:24:18.015Z,99965.72
2023-05-08T07:26:44.977Z,99958.25
2023-05-08T07:29:11.407Z,99956.13
2023-05-08T07:31:39.716Z,99975.75
2023-05-08T07:34:07.540Z,99962.38
2023-05-08T07:36:33.902Z,99974.03
2023-05-08T07:39:00.381Z,99963.75
2023-05-08T07:41:27.220Z,99963.16
2023-05-08T07:43:54.007Z,99974.47
2023-05-08T07:46:20.521Z,99965.88
2023-05-08T07:48:46.926Z,99973.59
2023-05-08T07:51:14.620Z,99971.84
2023-05-08T07:53:40.975Z,99978.78
2023-05-08T07:56:08.162Z,99968.75
2023-05-08T07:58:34.574Z,99971.13
2023-05-08T08:01:01.128Z,99965.34
2023-05-08T08:03:27.761Z,99978.91
2023-05-08T08:05:54.552Z,99959.84
2023-05-08T08:08:21.113Z,99970.84
2023-05-08T08:10:47.404Z,99966.88
2023-05-08T08:13:14.084Z,99959.16
2023-05-08T08:15:42.150Z,99959.59
2023-05-08T08:18:08.578Z,99954.03
2023-05-08T08:20:34.986Z,99949.69
2023-05-08T08:23:01.548Z,99964.13
2023-05-08T08:25:28.294Z,99952.28
2023-05-08T08:27:55.728Z,99948.78
2023-05-08T08:30:22.080Z,99964.44
2023-05-08T08:32:48.417Z,99958.53
2023-05-08T08:35:16.549Z,99956.53
2023-05-08T08:37:43.482Z,99948.03
2023-05-08T08:40:10.224Z,99950.59
2023-05-08T08:42:37.033Z,99941.94
2023-05-08T08:45:03.620Z,99945.72
2023-05-08T08:47:35.987Z,99944.63
2023-05-08T08:50:05.757Z,99947.78
2023-05-08T08:52:41.312Z,99943.38
2023-05-08T08:55:12.158Z,99947.38
2023-05-08T08:58:03.317Z,99941.22
2023-05-08T09:00:32.480Z,99940.81
2023-05-08T09:02:59.583Z,99921.47
2023-05-08T09:05:27.223Z,99928.31
2023-05-08T09:07:54.732Z,99916.78
2023-05-08T09:10:23.843Z,99922.16
2023-05-08T09:12:50.283Z,99915.03
2023-05-08T09:15:18.156Z,99915.34
2023-05-08T09:17:44.476Z,99912.03
2023-05-08T09:20:11.883Z,99908.16
2023-05-08T09:22:39.255Z,99914.03
2023-05-08T09:25:07.159Z,99901.81
2023-05-08T09:27:33.467Z,99901.97
2023-05-08T09:30:01.169Z,99911.88
2023-05-08T09:32:29.393Z,99889.00
2023-05-08T09:34:55.718Z,99903.72
2023-05-08T09:37:22.498Z,99895.00
2023-05-08T09:39:48.836Z,99888.44
2023-05-08T09:42:15.747Z,99906.69
2023-05-08T09:44:49.008Z,99910.94
2023-05-08T09:47:19.676Z,99908.44
2023-05-08T09:50:02.826Z,99904.03
2023-05-08T09:52:30.915Z,99909.44
2023-05-08T09:55:06.044Z,99911.00
2023-05-08T09:57:35.247Z,99896.94
2023-05-08T10:00:10.070Z,99900.78
2023-05-08T10:02:38.592Z,99901.91
2023-05-08T10:05:23.224Z,99906.28
2023-05-08T10:07:50.229Z,99905.03
2023-05-08T10:10:22.911Z,99903.28
2023-05-08T10:12:50.882Z,99899.78
2023-05-08T10:15:18.208Z,99908.56
2023-05-08T10:18:02.177Z,99904.44
2023-05-08T10:20:30.937Z,99893.72
2023-05-08T10:22:58.603Z,99901.66
2023-05-08T10:25:25.952Z,99889.22
2023-05-08T10:28:09.604Z,99879.31
2023-05-08T10:30:38.793Z,99886.97
2023-05-08T10:33:10.098Z,99899.09
2023-05-08T10:35:40.242Z,99894.28
2023-05-08T10:38:09.060Z,99892.81
2023-05-08T10:40:36.383Z,99887.63
2023-05-08T10:43:04.106Z,99884.84
2023-05-08T10:45:32.115Z,99877.19
2023-05-08T10:48:26.634Z,99885.78
2023-05-08T10:51:27.721Z,99891.38
2023-05-08T10:54:00.666Z,99876.34
2023-05-08T10:56:28.243Z,99890.84
2023-05-08T10:58:59.052Z,99872.19
2023-05-08T11:01:27.971Z,99878.88
2023-05-08T11:03:55.058Z,99868.72
2023-05-08T11:06:45.084Z,99877.22
2023-05-08T11:09:20.235Z,99874.78
2023-05-08T11:11:54.212Z,99868.25
2023-05-08T11:14:22.089Z,99875.94
2023-05-08T11:16:54.474Z,99872.50
2023-05-08T11:19:24.150Z,99877.53
2023-05-08T11:22:17.901Z,99878.88
2023-05-08T11:24:57.746Z,99872.06
2023-05-08T11:27:36.541Z,99861.28
2023-05-08T11:30:18.600Z,99859.03
2023-05-08T11:33:03.191Z,99864.97
2023-05-08T11:36:18.115Z,99857.41
2023-05-08T11:39:08.532Z,99853.09
2023-05-08T11:41:35.314Z,99842.78
2023-05-08T11:44:09.733Z,99849.63
2023-05-08T11:46:40.747Z,99824.84
2023-05-08T11:49:11.350Z,99838.13
2023-05-08T11:51:37.808Z,99824.16
2023-05-08T11:54:06.095Z,99829.78
2023-05-08T11:56:32.939Z,99830.03
2023-05-08T11:59:06.295Z,99819.25
2023-05-08T12:01:33.515Z,99831.66
2023-05-08T12:04:05.390Z,99832.03
2023-05-08T12:06:33.263Z,99840.94
2023-05-08T12:09:00.919Z,99824.16
2023-05-08T12:11:28.237Z,99817.91
2023-05-08T12:13:55.171Z,99828.22
2023-05-08T12:16:23.571Z,99829.84
2023-05-08T12:18:50.986Z,99833.53
2023-05-08T12:21:17.454Z,99814.34
2023-05-08T12:23:44.121Z,99830.63
2023-05-08T12:26:10.915Z,99800.78
2023-05-08T12:28:37.210Z,99825.44
2023-05-08T12:31:04.528Z,99819.41
2023-05-08T12:33:31.311Z,99822.03
2023-05-08T12:35:57.788Z,99819.38
2023-05-08T12:38:28.933Z,99822.66
2023-05-08T12:40:55.243Z,99820.00
2023-05-08T12:43:30.910Z,99833.00
2023-05-08T12:45:57.287Z,99822.03
2023-05-08T12:48:23.670Z,99828.81
2023-05-08T12:50:50.186Z,99819.25
2023-05-08T12:53:17.949Z,99815.78
2023-05-08T12:55:58.994Z,99812.00
2023-05-08T12:58:27.651Z,99814.19
2023-05-08T13:01:09.177Z,99792.09
2023-05-08T13:03:36.817Z,99803.63
2023-05-08T13:06:03.398Z,99806.16
2023-05-08T13:08:35.257Z,99799.34
2023-05-08T13:11:03.533Z,99813.00
2023-05-08T13:13:32.999Z,99803.81
2023-05-08T13:16:05.558Z,99800.56
2023-05-08T13:18:33.422Z,99790.69
2023-05-08T13:20:59.843Z,99795.78
2023-05-08T13:23:26.742Z,99791.00
2023-05-08T13:25:53.411Z,99790.16
2023-05-08T13:28:20.113Z,99782.66
2023-05-08T13:30:46.492Z,99792.31
2023-05-08T13:33:12.858Z,99793.59
2023-05-08T13:35:40.762Z,99769.31
2023-05-08T13:38:07.189Z,99779.94
2023-05-08T13:40:33.860Z,99785.47
2023-05-08T13:43:00.209Z,99769.91
2023-05-08T13:45:26.876Z,99789.34
2023-05-08T13:47:54.043Z,99786.00
2023-05-08T13:50:20.597Z,99776.41
2023-05-08T13:52:47.262Z,99777.47
2023-05-08T13:55:14.095Z,99784.81
2023-05-08T13:57:41.067Z,99777.94
2023-05-08T14:00:08.356Z,99783.34
2023-05-08T14:02:35.544Z,99770.28
2023-05-08T14:05:02.099Z,99760.13
2023-05-08T14:07:28.765Z,99764.72
2023-05-08T14:09:55.199Z,99764.28
2023-05-08T14:12:21.754Z,99761.59
2023-05-08T14:14:48.270Z,99770.31
2023-05-08T14:17:15.413Z,99756.41
2023-05-08T14:19:41.900Z,99769.09
2023-05-08T14:22:08.229Z,99762.81
2023-05-08T14:24:34.635Z,99767.81
2023-05-08T14:27:00.941Z,99768.47
2023-05-08T14:29:27.390Z,99765.28
2023-05-08T14:31:54.165Z,99752.22
2023-05-08T14:34:20.496Z,99754.59
2023-05-08T14:36:46.919Z,99767.88
2023-05-08T14:39:13.541Z,99773.81
2023-05-08T14:41:39.911Z,99774.88
2023-05-08T14:44:06.198Z,99772.91
2023-05-08T14:46:32.982Z,99772.66
2023-05-08T14:48:59.430Z,99754.66
2023-05-08T14:51:26.113Z,99760.97
2023-05-08T14:53:52.923Z,99767.63
2023-05-08T14:56:19.408Z,99758.00
2023-05-08T14:58:46.519Z,99763.13
2023-05-08T15:01:12.917Z,99750.53
2023-05-08T15:03:39.621Z,99759.22
2023-05-08T15:06:06.446Z,99748.06
2023-05-08T15:08:32.826Z,99747.19
2023-05-08T15:10:59.391Z,99744.19
2023-05-08T15:13:25.770Z,99747.50
2023-05-08T15:15:52.356Z,99739.94
2023-05-08T15:18:18.692Z,99743.59
2023-05-08T15:20:45.210Z,99747.38
2023-05-08T15:23:11.635Z,99748.69
2023-05-08T15:25:38.052Z,99746.19
2023-05-08T15:28:04.352Z,99753.97
2023-05-08T15:30:31.013Z,99743.03
2023-05-08T15:32:57.356Z,99748.31
2023-05-08T15:35:23.662Z,99747.59
2023-05-08T15:37:50.079Z,99744.06
2023-05-08T15:40:16.959Z,99736.06
2023-05-08T15:42:43.322Z,99736.44
2023-05-08T15:45:10.049Z,99737.34
2023-05-08T15:47:36.406Z,99746.91
2023-05-08T15:50:02.891Z,99740.47
2023-05-08T15:52:29.244Z,99743.03
2023-05-08T15:54:55.511Z,99734.44
2023-05-08T15:57:22.057Z,99734.31
2023-05-08T15:59:48.355Z,99736.94
2023-05-08T16:02:15.112Z,99738.78
2023-05-08T16:04:41.576Z,99739.22
2023-05-08T16:07:07.873Z,99733.13
2023-05-08T16:09:34.268Z,99744.81
2023-05-08T16:12:00.604Z,99744.25
2023-05-08T16:14:26.922Z,99719.56
2023-05-08T16:16:53.412Z,99744.56
2023-05-08T16:19:19.746Z,99737.41
2023-05-08T16:21:46.217Z,99735.78
2023-05-08T16:24:12.636Z,99748.13
2023-05-08T16:26:38.931Z,99724.53
2023-05-08T16:29:05.360Z,99721.78
2023-05-08T16:31:31.867Z,99727.44
2023-05-08T16:33:58.199Z,99728.94
2023-05-08T16:36:24.492Z,99727.31
2023-05-08T16:38:50.929Z,99730.97
2023-05-08T16:41:17.221Z,99723.84
2023-05-08T16:43:43.742Z,99715.47
2023-05-08T16:46:10.073Z,99722.22
2023-05-08T16:48:36.702Z,99717.78
2023-05-08T16:51:03.098Z,99721.03
2023-05-08T16:53:29.478Z,99719.06
2023-05-08T16:55:55.887Z,99707.78
2023-05-08T16:58:22.316Z,99703.66
2023-05-08T17:00:48.751Z,99712.06
2023-05-08T17:03:15.188Z,99715.50
2023-05-08T17:05:41.836Z,99711.34
2023-05-08T17:08:08.163Z,99723.25
2023-05-08T17:10:34.479Z,99711.72
2023-05-08T17:13:00.880Z,99710.31
2023-05-08T17:15:27.320Z,99708.97
2023-05-08T17:17:53.778Z,99732.72
2023-05-08T17:20:20.326Z,99723.47
2023-05-08T17:22:46.780Z,99727.56
2023-05-08T17:25:13.209Z,99723.50
2023-05-08T17:27:39.623Z,99722.13
2023-05-08T17:30:06.753Z,99722.88
2023-05-08T17:32:33.065Z,99733.72
2023-05-08T17:34:59.494Z,99724.88
2023-05-08T17:37:25.853Z,99724.03
2023-05-08T17:39:52.149Z,99739.06
2023-05-08T17:42:18.680Z,99730.97
2023-05-08T17:44:45.032Z,99732.09
2023-05-08T17:47:11.674Z,99740.38
2023-05-08T17:49:38.111Z,99737.03
2023-05-08T17:52:04.825Z,99728.06
2023-05-08T17:54:31.240Z,99735.38
2023-05-08T17:56:57.635Z,99742.50
2023-05-08T17:59:24.037Z,99722.03
2023-05-08T18:01:50.477Z,99741.69
2023-05-08T18:04:16.930Z,99736.22
2023-05-08T18:06:43.393Z,99737.16
2023-05-08T18:09:10.085Z,99709.78
2023-05-08T18:11:36.449Z,99746.13
2023-05-08T18:14:02.817Z,99742.34
2023-05-08T18:16:29.493Z,99740.47
2023-05-08T18:18:55.994Z,99751.41
2023-05-08T18:21:22.373Z,99750.13
2023-05-08T18:23:48.713Z,99744.09
2023-05-08T18:26:16.222Z,99745.19
2023-05-08T18:28:43.512Z,99751.88
2023-05-08T18:31:10.079Z,99744.59
2023-05-08T18:33:36.590Z,99737.44
2023-05-08T18:36:03.357Z,99738.22
2023-05-08T18:38:29.983Z,99754.47
2023-05-08T18:40:56.673Z,99754.19
2023-05-08T18:43:23.089Z,99754.56
2023-05-08T18:45:49.450Z,99740.47
2023-05-08T18:48:15.800Z,99747.06
2023-05-08T18:50:42.600Z,99747.56
2023-05-08T18:53:09.001Z,99754.13
2023-05-08T18:55:35.749Z,99755.22
2023-05-08T18:58:02.397Z,99770.78
2023-05-08T19:00:28.750Z,99766.69
2023-05-08T19:02:55.213Z,99767.81
2023-05-08T19:05:21.776Z,99777.84
2023-05-08T19:07:48.420Z,99785.00
2023-05-08T19:10:15.214Z,99785.25
2023-05-08T19:12:41.899Z,99780.34
2023-05-08T19:15:08.787Z,99775.16
2023-05-08T19:17:35.220Z,99770.94
2023-05-08T19:20:01.525Z,99776.31
2023-05-08T19:22:28.312Z,99766.78
2023-05-08T19:24:54.613Z,99761.84
2023-05-08T19:27:20.984Z,99759.00
2023-05-08T19:29:47.612Z,99762.88
2023-05-08T19:32:13.916Z,99766.50
2023-05-08T19:34:40.411Z,99754.38
2023-05-08T19:37:06.944Z,99751.66
2023-05-08T19:39:33.354Z,99760.59
2023-05-08T19:41:59.650Z,99757.50
2023-05-08T19:44:26.031Z,99766.59
2023-05-08T19:46:52.366Z,99764.41
2023-05-08T19:49:18.815Z,99776.84
2023-05-08T19:51:45.236Z,99757.78
2023-05-08T19:54:11.592Z,99781.94
2023-05-08T19:56:37.877Z,99779.66
2023-05-08T19:59:04.429Z,99774.84
2023-05-08T20:01:31.014Z,99778.38
2023-05-08T20:03:59.769Z,99770.28
2023-05-08T20:06:27.000Z,99764.50
2023-05-08T20:08:53.699Z,99761.25
2023-05-08T20:11:20.011Z,99766.31
2023-05-08T20:13:46.445Z,99760.31
2023-05-08T20:16:13.069Z,99762.69
2023-05-08T20:18:39.463Z,99763.19
2023-05-08T20:21:05.783Z,99772.25
2023-05-08T20:23:32.148Z,99774.53
2023-05-08T20:25:58.588Z,99783.22
2023-05-08T20:28:24.901Z,99774.16
2023-05-08T20:30:52.441Z,99779.00
2023-05-08T20:33:19.000Z,99759.16
2023-05-08T20:35:45.337Z,99766.16
2023-05-08T20:38:11.727Z,99756.25
2023-05-08T20:40:38.027Z,99765.91
2023-05-08T20:43:04.344Z,99761.31
2023-05-08T20:45:30.797Z,99765.75
2023-05-08T20:47:57.444Z,99769.63
2023-05-08T20:50:23.870Z,99765.84
2023-05-08T20:52:50.192Z,99746.31
2023-05-08T20:55:16.598Z,99768.75
2023-05-08T20:57:43.376Z,99766.44
2023-05-08T21:00:10.251Z,99743.75
2023-05-08T21:02:36.746Z,99750.47
2023-05-08T21:05:03.347Z,99750.09
2023-05-08T21:07:29.860Z,99754.13
2023-05-08T21:09:56.711Z,99746.41
2023-05-08T21:12:23.343Z,99760.72
2023-05-08T21:14:49.625Z,99755.50
2023-05-08T21:17:16.336Z,99762.34
2023-05-08T21:19:42.702Z,99754.03
2023-05-08T21:22:09.244Z,99754.47
2023-05-08T21:24:35.735Z,99761.25
2023-05-08T21:27:02.206Z,99733.13
2023-05-08T21:29:29.101Z,99751.22
2023-05-08T21:31:55.519Z,99759.91
2023-05-08T21:34:21.857Z,99751.53
2023-05-08T21:36:49.454Z,99760.03
2023-05-08T21:39:15.746Z,99758.16
2023-05-08T21:41:43.007Z,99751.25
2023-05-08T21:44:09.660Z,99754.13
2023-05-08T21:46:35.978Z,99749.06
2023-05-08T21:49:02.407Z,99746.41
2023-05-08T21:51:28.975Z,99751.50
2023-05-08T21:53:55.441Z,99768.84
2023-05-08T21:56:21.747Z,99758.97
2023-05-08T21:58:48.143Z,99767.88
2023-05-08T22:01:14.895Z,99771.50
2023-05-08T22:03:41.548Z,99753.69
2023-05-08T22:06:08.460Z,99754.47
2023-05-08T22:08:34.778Z,99758.16
2023-05-08T22:11:01.373Z,99761.97
2023-05-08T22:13:27.719Z,99753.31
2023-05-08T22:15:54.059Z,99731.53
2023-05-08T22:18:20.463Z,99756.16
2023-05-08T22:20:46.755Z,99759.66
2023-05-08T22:23:13.151Z,99749.63
2023-05-08T22:25:39.751Z,99750.69
2023-05-08T22:28:06.089Z,99742.56
2023-05-08T22:30:32.452Z,99738.56
2023-05-08T22:32:58.926Z,99756.53
2023-05-08T22:35:26.892Z,99742.47
2023-05-08T22:37:54.008Z,99756.31
2023-05-08T22:40:21.139Z,99731.78
2023-05-08T22:42:47.800Z,99741.19
2023-05-08T22:45:14.714Z,99747.41
2023-05-08T22:47:41.463Z,99739.81
2023-05-08T22:50:08.432Z,99723.88
2023-05-08T22:52:36.047Z,99732.53
2023-05-08T22:55:03.460Z,99729.47
2023-05-08T22:57:29.860Z,99727.88
2023-05-08T22:59:56.286Z,99714.78
2023-05-08T23:02:22.920Z,99714.22
2023-05-08T23:04:49.510Z,99711.25
2023-05-08T23:07:15.969Z,99726.16
2023-05-08T23:09:42.279Z,99717.78
2023-05-08T23:12:08.658Z,99707.00
2023-05-08T23:14:34.992Z,99719.56
2023-05-08T23:17:01.547Z,99701.25
2023-05-08T23:19:27.899Z,99702.13
2023-05-08T23:21:54.269Z,99709.47
2023-05-08T23:24:20.584Z,99699.00
2023-05-08T23:26:47.054Z,99705.44
2023-05-08T23:29:13.352Z,99699.81
2023-05-08T23:31:39.662Z,99702.97
2023-05-08T23:34:06.093Z,99684.75
2023-05-08T23:36:33.037Z,99704.38
2023-05-08T23:38:59.401Z,99701.34
2023-05-08T23:41:25.826Z,99689.63
2023-05-08T23:43:52.192Z,99702.72
2023-05-08T23:46:18.618Z,99690.97
2023-05-08T23:48:45.110Z,99698.88
2023-05-08T23:51:11.470Z,99687.78
2023-05-08T23:53:37.883Z,99692.56
2023-05-08T23:56:04.554Z,99695.59
2023-05-08T23:58:30.935Z,99702.03
